createdAt,value
2019-05-17T00:01:53.754Z,16.40
2019-05-17T00:03:57.434Z,17.23
2019-05-17T00:06:01.094Z,16.40
2019-05-17T00:08:07.383Z,17.57
2019-05-17T00:10:10.279Z,18.27
2019-05-17T00:12:16.475Z,16.77
2019-05-17T00:14:19.391Z,18.00
2019-05-17T00:16:23.026Z,18.03
2019-05-17T00:18:26.721Z,17.53
2019-05-17T00:20:30.404Z,17.83
2019-05-17T00:22:36.391Z,16.67
2019-05-17T00:24:39.499Z,17.37
2019-05-17T00:26:43.167Z,19.17
2019-05-17T00:28:47.043Z,17.83
2019-05-17T00:30:50.778Z,18.03
2019-05-17T00:32:56.800Z,17.57
2019-05-17T00:34:59.975Z,18.97
2019-05-17T00:37:03.640Z,19.30
2019-05-17T00:39:07.658Z,18.40
2019-05-17T00:41:11.345Z,18.23
2019-05-17T00:43:16.945Z,17.70
2019-05-17T00:45:20.419Z,21.60
2019-05-17T00:47:26.413Z,20.37
2019-05-17T00:49:29.511Z,19.73
2019-05-17T00:51:33.167Z,20.40
2019-05-17T00:53:36.859Z,22.63
2019-05-17T00:55:40.523Z,17.57
2019-05-17T00:57:44.190Z,17.97
2019-05-17T00:59:47.889Z,19.37
2019-05-17T01:01:51.563Z,17.07
2019-05-17T01:03:57.113Z,16.53
2019-05-17T01:06:00.642Z,17.53
2019-05-17T01:08:06.895Z,19.50
2019-05-17T01:10:11.151Z,21.30
2019-05-17T01:12:16.450Z,17.40
2019-05-17T01:14:20.325Z,20.47
2019-05-17T01:16:23.973Z,17.70
2019-05-17T01:18:27.647Z,18.40
2019-05-17T01:20:31.331Z,17.77
2019-05-17T01:22:36.678Z,19.23
2019-05-17T01:24:40.583Z,18.03
2019-05-17T01:26:46.710Z,18.20
2019-05-17T01:28:49.633Z,17.37
2019-05-17T01:30:53.318Z,18.87
2019-05-17T01:32:57.154Z,20.90
2019-05-17T01:35:00.867Z,18.47
2019-05-17T01:37:06.485Z,16.93
2019-05-17T01:39:17.771Z,20.17
2019-05-17T01:41:17.292Z,18.17
2019-05-17T01:43:20.886Z,19.67
2019-05-17T01:45:26.812Z,17.43
2019-05-17T01:47:29.957Z,18.30
2019-05-17T01:49:33.655Z,18.80
2019-05-17T01:51:37.351Z,17.60
2019-05-17T01:53:41.050Z,16.17
2019-05-17T01:55:46.591Z,17.33
2019-05-17T01:57:50.385Z,16.23
2019-05-17T01:59:54.052Z,14.90
2019-05-17T02:01:59.306Z,14.63
2019-05-17T02:04:03.068Z,15.03
2019-05-17T02:06:07.417Z,13.13
2019-05-17T02:08:11.525Z,13.93
2019-05-17T02:10:16.820Z,13.83
2019-05-17T02:12:20.727Z,16.70
2019-05-17T02:14:26.631Z,14.80
2019-05-17T02:16:29.804Z,16.63
2019-05-17T02:18:33.494Z,14.80
2019-05-17T02:20:37.541Z,16.47
2019-05-17T02:22:41.331Z,15.97
2019-05-17T02:24:46.418Z,17.13
2019-05-17T02:26:50.266Z,16.13
2019-05-17T02:28:53.930Z,17.10
2019-05-17T02:30:57.772Z,17.13
2019-05-17T02:33:03.704Z,16.47
2019-05-17T02:35:07.031Z,16.70
2019-05-17T02:37:13.455Z,16.67
2019-05-17T02:39:16.139Z,17.30
2019-05-17T02:41:22.636Z,19.10
2019-05-17T02:43:25.222Z,20.83
2019-05-17T02:45:29.010Z,18.23
2019-05-17T02:47:33.712Z,19.53
2019-05-17T02:49:37.629Z,18.33
2019-05-17T02:51:43.087Z,18.80
2019-05-17T02:53:47.091Z,17.43
2019-05-17T02:55:53.698Z,18.17
2019-05-17T02:57:56.271Z,20.23
2019-05-17T03:00:04.021Z,21.63
2019-05-17T03:02:05.455Z,19.10
2019-05-17T03:04:09.122Z,21.00
2019-05-17T03:06:13.643Z,22.30
2019-05-17T03:08:17.612Z,20.50
2019-05-17T03:10:27.511Z,26.43
2019-05-17T03:12:26.778Z,21.30
2019-05-17T03:14:32.833Z,20.33
2019-05-17T03:16:35.839Z,21.07
2019-05-17T03:18:39.728Z,22.47
2019-05-17T03:20:43.401Z,19.70
2019-05-17T03:22:47.095Z,20.10
2019-05-17T03:24:53.367Z,19.50
2019-05-17T03:26:57.121Z,18.90
2019-05-17T03:29:03.217Z,19.17
2019-05-17T03:31:08.914Z,21.40
2019-05-17T03:33:16.151Z,18.03
2019-05-17T03:35:18.121Z,21.50
2019-05-17T03:37:30.143Z,22.13
2019-05-17T03:39:27.805Z,25.50
2019-05-17T03:41:34.019Z,21.57
2019-05-17T03:43:40.314Z,19.60
2019-05-17T03:45:42.733Z,20.63
2019-05-17T03:47:46.478Z,19.63
2019-05-17T03:49:52.924Z,20.47
2019-05-17T03:51:55.758Z,22.03
2019-05-17T03:54:02.134Z,20.80
2019-05-17T03:56:05.031Z,22.30
2019-05-17T03:58:08.705Z,22.70
2019-05-17T04:00:13.477Z,26.83
2019-05-17T04:02:17.357Z,28.83
2019-05-17T04:04:22.944Z,27.50
2019-05-17T04:06:26.815Z,27.60
2019-05-17T04:08:33.210Z,30.97
2019-05-17T04:10:36.019Z,32.50
2019-05-17T04:12:39.701Z,34.90
2019-05-17T04:14:43.395Z,39.13
2019-05-17T04:16:47.067Z,44.23
2019-05-17T04:18:53.333Z,44.53
2019-05-17T04:20:56.225Z,41.73
2019-05-17T04:23:03.748Z,45.23
2019-05-17T04:25:06.813Z,43.13
2019-05-17T04:27:13.482Z,45.33
2019-05-17T04:29:16.066Z,47.40
2019-05-17T04:31:22.547Z,46.30
2019-05-17T04:33:25.125Z,41.47
2019-05-17T04:35:32.449Z,48.33
2019-05-17T04:37:38.303Z,44.00
2019-05-17T04:39:42.937Z,48.77
2019-05-17T04:41:50.376Z,47.00
2019-05-17T04:43:53.116Z,45.90
2019-05-17T04:45:56.343Z,47.07
2019-05-17T04:48:03.627Z,53.73
2019-05-17T04:50:06.237Z,56.57
2019-05-17T04:52:09.982Z,48.87
2019-05-17T04:54:14.092Z,50.30
2019-05-17T04:56:17.919Z,51.17
2019-05-17T04:58:23.295Z,55.20
2019-05-17T05:00:27.007Z,56.87
2019-05-17T05:02:33.079Z,67.00
2019-05-17T05:04:38.482Z,59.23
2019-05-17T05:06:43.526Z,59.83
2019-05-17T05:08:46.915Z,57.47
2019-05-17T05:10:53.510Z,51.43
2019-05-17T05:12:56.909Z,52.47
2019-05-17T05:15:03.393Z,53.37
2019-05-17T05:17:06.295Z,53.23
2019-05-17T05:19:12.803Z,51.67
2019-05-17T05:21:15.490Z,53.73
2019-05-17T05:23:19.199Z,53.97
2019-05-17T05:25:22.919Z,49.17
2019-05-17T05:27:26.604Z,50.03
2019-05-17T05:29:32.133Z,52.30
2019-05-17T05:31:35.929Z,50.00
2019-05-17T05:33:41.833Z,49.23
2019-05-17T05:35:45.123Z,46.07
2019-05-17T05:37:48.923Z,50.37
2019-05-17T05:39:54.674Z,48.77
2019-05-17T05:42:06.834Z,46.77
2019-05-17T05:44:03.401Z,43.13
2019-05-17T05:46:07.095Z,46.30
2019-05-17T05:48:12.797Z,48.97
2019-05-17T05:50:17.715Z,44.97
2019-05-17T05:52:21.964Z,46.47
2019-05-17T05:54:25.649Z,52.00
2019-05-17T05:56:29.367Z,44.70
2019-05-17T05:58:33.133Z,46.87
2019-05-17T06:00:36.786Z,42.57
2019-05-17T06:02:41.873Z,42.63
2019-05-17T06:04:45.969Z,42.27
2019-05-17T06:06:52.090Z,44.13
2019-05-17T06:08:55.056Z,43.47
2019-05-17T06:10:58.760Z,41.40
2019-05-17T06:13:03.268Z,45.80
2019-05-17T06:15:07.755Z,47.97
2019-05-17T06:17:12.612Z,52.93
2019-05-17T06:19:16.462Z,46.67
2019-05-17T06:21:22.453Z,47.87
2019-05-17T06:23:25.548Z,40.67
2019-05-17T06:25:29.212Z,42.83
2019-05-17T06:27:32.904Z,42.77
2019-05-17T06:29:36.570Z,40.10
2019-05-17T06:31:40.230Z,38.07
2019-05-17T06:33:43.955Z,34.27
2019-05-17T06:35:47.655Z,34.87
2019-05-17T06:37:53.499Z,36.53
2019-05-17T06:39:56.751Z,33.37
2019-05-17T06:42:02.588Z,34.27
2019-05-17T06:44:05.926Z,31.67
2019-05-17T06:46:09.596Z,34.60
2019-05-17T06:48:13.263Z,31.37
2019-05-17T06:50:16.990Z,28.80
2019-05-17T06:52:22.571Z,30.80
2019-05-17T06:54:26.177Z,30.33
2019-05-17T06:56:32.052Z,31.10
2019-05-17T06:58:35.222Z,31.47
2019-05-17T07:00:40.428Z,31.53
2019-05-17T07:02:44.348Z,30.47
2019-05-17T07:04:48.053Z,30.10
2019-05-17T07:06:53.284Z,34.03
2019-05-17T07:08:57.529Z,27.67
2019-05-17T07:11:01.193Z,28.00
2019-05-17T07:13:04.855Z,27.37
2019-05-17T07:15:10.741Z,29.93
2019-05-17T07:17:14.137Z,30.30
2019-05-17T07:19:19.751Z,25.57
2019-05-17T07:21:23.242Z,25.67
2019-05-17T07:23:26.900Z,26.80
2019-05-17T07:25:30.599Z,26.37
2019-05-17T07:27:41.394Z,25.77
2019-05-17T07:29:40.369Z,24.03
2019-05-17T07:31:44.329Z,24.60
2019-05-17T07:33:50.337Z,22.37
2019-05-17T07:35:53.476Z,23.73
2019-05-17T07:37:59.359Z,24.10
2019-05-17T07:40:05.190Z,26.47
2019-05-17T07:42:09.678Z,22.57
2019-05-17T07:44:13.374Z,23.10
2019-05-17T07:46:17.122Z,26.27
2019-05-17T07:48:20.801Z,23.17
2019-05-17T07:50:24.568Z,23.07
2019-05-17T07:52:30.026Z,24.33
2019-05-17T07:54:33.854Z,21.17
2019-05-17T07:56:40.008Z,22.90
2019-05-17T07:58:42.991Z,21.53
2019-05-17T08:00:46.774Z,20.97
2019-05-17T08:02:50.589Z,22.03
2019-05-17T08:04:54.294Z,21.37
2019-05-17T08:06:59.780Z,22.47
2019-05-17T08:09:05.057Z,21.20
2019-05-17T08:11:10.639Z,23.20
2019-05-17T08:13:25.805Z,22.80
2019-05-17T08:15:19.872Z,27.60
2019-05-17T08:17:23.634Z,22.03
2019-05-17T08:19:29.870Z,23.10
2019-05-17T08:21:33.633Z,22.77
2019-05-17T08:23:39.835Z,24.63
2019-05-17T08:25:52.845Z,22.40
2019-05-17T08:27:50.181Z,20.27
2019-05-17T08:29:53.491Z,22.40
2019-05-17T08:31:57.198Z,22.97
2019-05-17T08:34:00.872Z,19.93
2019-05-17T08:36:04.547Z,21.37
2019-05-17T08:38:10.404Z,21.33
2019-05-17T08:40:15.357Z,20.83
2019-05-17T08:42:20.445Z,22.90
2019-05-17T08:44:24.239Z,22.40
2019-05-17T08:46:30.353Z,22.90
2019-05-17T08:48:33.336Z,21.03
2019-05-17T08:50:37.009Z,21.90
2019-05-17T08:52:40.718Z,23.93
2019-05-17T08:54:44.362Z,24.53
2019-05-17T08:56:50.284Z,21.53
2019-05-17T08:58:53.645Z,23.40
2019-05-17T09:01:00.008Z,24.40
2019-05-17T09:03:02.822Z,23.53
2019-05-17T09:05:06.688Z,19.60
2019-05-17T09:07:10.355Z,22.37
2019-05-17T09:09:14.047Z,22.93
2019-05-17T09:11:19.688Z,20.23
2019-05-17T09:13:23.267Z,23.47
2019-05-17T09:15:27.107Z,23.27
2019-05-17T09:17:30.845Z,21.87
2019-05-17T09:19:34.810Z,22.50
2019-05-17T09:21:39.730Z,22.47
2019-05-17T09:23:43.789Z,23.53
2019-05-17T09:25:49.908Z,22.87
2019-05-17T09:27:53.055Z,27.43
2019-05-17T09:29:56.785Z,22.50
2019-05-17T09:32:00.496Z,21.80
2019-05-17T09:34:04.270Z,24.57
2019-05-17T09:36:10.108Z,22.83
2019-05-17T09:38:13.551Z,20.33
2019-05-17T09:40:19.831Z,20.97
2019-05-17T09:42:22.773Z,21.10
2019-05-17T09:44:26.668Z,22.07
2019-05-17T09:46:30.492Z,21.10
2019-05-17T09:48:34.245Z,20.20
2019-05-17T09:50:39.894Z,22.37
2019-05-17T09:52:43.482Z,21.00
2019-05-17T09:54:47.489Z,20.90
2019-05-17T09:56:51.195Z,21.27
2019-05-17T09:58:54.938Z,22.67
2019-05-17T10:01:01.365Z,24.13
2019-05-17T10:03:04.116Z,19.73
2019-05-17T10:05:10.321Z,26.33
2019-05-17T10:07:13.394Z,23.80
2019-05-17T10:09:19.489Z,23.90
2019-05-17T10:11:22.482Z,21.03
2019-05-17T10:13:26.246Z,25.90
2019-05-17T10:15:30.132Z,21.13
2019-05-17T10:17:34.140Z,23.80
2019-05-17T10:19:43.072Z,19.73
2019-05-17T10:21:46.883Z,23.67
2019-05-17T10:23:50.634Z,26.97
2019-05-17T10:25:54.345Z,22.77
2019-05-17T10:28:00.356Z,23.80
2019-05-17T10:30:04.931Z,22.83
2019-05-17T10:32:10.487Z,24.57
2019-05-17T10:34:14.095Z,22.50
2019-05-17T10:36:20.021Z,21.17
2019-05-17T10:38:23.209Z,24.17
2019-05-17T10:40:27.120Z,21.43
2019-05-17T10:42:30.807Z,22.20
2019-05-17T10:44:46.204Z,23.63
2019-05-17T10:46:40.642Z,25.60
2019-05-17T10:48:44.440Z,23.57
2019-05-17T10:50:49.676Z,23.10
2019-05-17T10:52:53.461Z,22.60
2019-05-17T10:54:59.613Z,23.53
2019-05-17T10:57:02.542Z,27.10
2019-05-17T10:59:06.209Z,21.77
2019-05-17T11:01:10.378Z,22.87
2019-05-17T11:03:14.159Z,23.57
2019-05-17T11:05:19.946Z,19.43
2019-05-17T11:07:23.332Z,24.73
2019-05-17T11:09:26.981Z,21.83
2019-05-17T11:11:30.721Z,21.67
2019-05-17T11:13:34.403Z,22.27
2019-05-17T11:15:38.124Z,20.70
2019-05-17T11:17:42.163Z,22.43
2019-05-17T11:19:45.897Z,21.43
2019-05-17T11:21:49.623Z,21.80
2019-05-17T11:23:53.322Z,18.70
2019-05-17T11:25:57.650Z,22.40
2019-05-17T11:28:01.348Z,20.80
2019-05-17T11:30:06.325Z,24.30
2019-05-17T11:32:10.153Z,22.10
2019-05-17T11:34:13.947Z,18.63
2019-05-17T11:36:17.715Z,21.47
2019-05-17T11:38:21.436Z,19.87
2019-05-17T11:40:25.122Z,20.70
2019-05-17T11:42:28.846Z,20.33
2019-05-17T11:44:32.541Z,17.23
2019-05-17T11:46:36.708Z,19.10
2019-05-17T11:48:40.492Z,19.57
2019-05-17T11:50:44.271Z,17.70
2019-05-17T11:52:47.991Z,18.97
2019-05-17T11:54:51.660Z,19.37
2019-05-17T11:56:55.374Z,16.90
2019-05-17T11:58:59.058Z,17.63
2019-05-17T12:01:02.738Z,17.37
2019-05-17T12:03:06.460Z,19.60
2019-05-17T12:05:10.615Z,16.97
2019-05-17T12:07:14.298Z,17.87
2019-05-17T12:09:18.004Z,18.77
2019-05-17T12:11:21.681Z,17.33
2019-05-17T12:13:25.375Z,17.13
2019-05-17T12:15:43.854Z,14.23
2019-05-17T12:17:34.467Z,15.87
2019-05-17T12:19:38.132Z,14.33
2019-05-17T12:21:41.816Z,16.40
2019-05-17T12:23:45.623Z,17.00
2019-05-17T12:25:49.309Z,15.80
2019-05-17T12:27:53.039Z,13.93
2019-05-17T12:29:56.709Z,17.50
2019-05-17T12:32:00.389Z,14.60
2019-05-17T12:34:04.138Z,15.07
2019-05-17T12:36:07.863Z,14.37
2019-05-17T12:38:11.730Z,13.53
2019-05-17T12:40:15.661Z,16.67
2019-05-17T12:42:19.337Z,14.30
2019-05-17T12:44:23.154Z,12.73
2019-05-17T12:46:26.890Z,14.07
2019-05-17T12:48:30.583Z,12.80
2019-05-17T12:50:34.271Z,12.70
2019-05-17T12:52:37.937Z,13.87
2019-05-17T12:54:41.638Z,13.87
2019-05-17T12:56:45.308Z,11.87
2019-05-17T12:58:49.003Z,14.40
2019-05-17T13:00:52.671Z,11.63
2019-05-17T13:02:56.340Z,11.70
2019-05-17T13:05:00.139Z,11.37
2019-05-17T13:07:03.898Z,10.67
2019-05-17T13:09:07.771Z,10.73
2019-05-17T13:11:11.556Z,9.77
2019-05-17T13:13:15.220Z,9.13
2019-05-17T13:15:18.910Z,9.80
2019-05-17T13:17:22.645Z,11.97
2019-05-17T13:19:26.335Z,11.23
2019-05-17T13:21:30.301Z,10.17
2019-05-17T13:23:33.974Z,9.97
2019-05-17T13:25:37.746Z,10.37
2019-05-17T13:27:41.413Z,9.60
2019-05-17T13:29:45.114Z,8.60
2019-05-17T13:31:48.771Z,9.10
2019-05-17T13:33:52.451Z,9.73
2019-05-17T13:35:56.334Z,9.00
2019-05-17T13:38:00.003Z,9.50
2019-05-17T13:40:08.639Z,10.20
2019-05-17T13:42:12.323Z,8.17
2019-05-17T13:44:15.986Z,9.13
2019-05-17T13:46:32.112Z,7.90
2019-05-17T13:48:25.152Z,6.40
2019-05-17T13:50:28.866Z,8.33
2019-05-17T13:52:32.554Z,9.03
2019-05-17T13:54:36.230Z,5.80
2019-05-17T13:56:39.913Z,6.30
2019-05-17T13:58:43.671Z,6.47
2019-05-17T14:00:47.509Z,7.93
2019-05-17T14:02:51.178Z,10.50
2019-05-17T14:04:54.838Z,8.83
2019-05-17T14:06:58.523Z,7.80
2019-05-17T14:09:02.181Z,7.10
2019-05-17T14:11:05.862Z,6.93
2019-05-17T14:13:09.533Z,7.93
2019-05-17T14:15:13.394Z,6.60
2019-05-17T14:17:17.101Z,7.57
2019-05-17T14:19:20.768Z,5.07
2019-05-17T14:21:24.471Z,4.93
2019-05-17T14:23:28.123Z,6.50
2019-05-17T14:25:31.881Z,8.17
2019-05-17T14:27:35.556Z,5.13
2019-05-17T14:29:39.245Z,4.93
2019-05-17T14:31:42.989Z,6.97
2019-05-17T14:33:46.672Z,6.03
2019-05-17T14:35:50.400Z,5.13
2019-05-17T14:37:54.125Z,3.00
2019-05-17T14:39:57.832Z,8.30
2019-05-17T14:42:01.639Z,8.43
2019-05-17T14:44:05.513Z,5.10
2019-05-17T14:46:09.189Z,5.10
2019-05-17T14:48:12.890Z,3.53
2019-05-17T14:50:16.662Z,3.97
2019-05-17T14:52:20.359Z,3.87
2019-05-17T14:54:24.036Z,5.33
2019-05-17T14:56:27.864Z,3.63
2019-05-17T14:58:31.533Z,3.50
2019-05-17T15:00:35.239Z,3.30
2019-05-17T15:02:38.927Z,3.67
2019-05-17T15:04:42.666Z,3.27
2019-05-17T15:06:46.358Z,4.97
2019-05-17T15:08:50.101Z,4.03
2019-05-17T15:10:53.762Z,4.50
2019-05-17T15:13:01.036Z,6.00
2019-05-17T15:15:04.417Z,5.53
2019-05-17T15:17:08.087Z,5.07
2019-05-17T15:19:11.841Z,4.03
2019-05-17T15:21:15.524Z,4.00
2019-05-17T15:23:19.229Z,4.03
2019-05-17T15:25:22.896Z,4.50
2019-05-17T15:27:26.559Z,6.57
2019-05-17T15:29:30.252Z,3.07
2019-05-17T15:31:33.916Z,3.80
2019-05-17T15:33:37.634Z,5.27
2019-05-17T15:35:41.369Z,2.47
2019-05-17T15:37:45.083Z,4.57
2019-05-17T15:39:48.740Z,2.17
2019-05-17T15:41:52.406Z,3.43
2019-05-17T15:43:56.102Z,2.83
2019-05-17T15:45:59.762Z,4.60
2019-05-17T15:48:03.448Z,2.90
2019-05-17T15:50:07.565Z,2.30
2019-05-17T15:52:11.340Z,3.20
2019-05-17T15:54:15.019Z,2.07
2019-05-17T15:56:18.692Z,3.30
2019-05-17T15:58:22.381Z,5.43
2019-05-17T16:00:26.116Z,3.10
2019-05-17T16:02:29.769Z,1.90
2019-05-17T16:04:33.488Z,2.97
2019-05-17T16:06:37.192Z,2.87
2019-05-17T16:08:40.945Z,3.20
2019-05-17T16:10:44.707Z,1.73
2019-05-17T16:13:01.817Z,2.20
2019-05-17T16:14:53.857Z,3.97
2019-05-17T16:16:57.537Z,2.57
2019-05-17T16:19:01.338Z,1.80
2019-05-17T16:21:05.070Z,1.73
2019-05-17T16:23:08.737Z,2.73
2019-05-17T16:25:12.952Z,2.37
2019-05-17T16:27:16.667Z,2.30
2019-05-17T16:29:20.439Z,2.10
2019-05-17T16:31:24.086Z,2.27
2019-05-17T16:33:27.744Z,6.20
2019-05-17T16:35:31.714Z,3.73
2019-05-17T16:37:35.380Z,3.97
2019-05-17T16:39:39.067Z,2.77
2019-05-17T16:41:42.739Z,4.40
2019-05-17T16:43:46.388Z,2.23
2019-05-17T16:45:50.089Z,6.27
2019-05-17T16:47:53.754Z,6.23
2019-05-17T16:49:57.466Z,4.10
2019-05-17T16:52:01.129Z,4.77
2019-05-17T16:54:05.005Z,2.00
2019-05-17T16:56:08.694Z,1.80
2019-05-17T16:58:12.355Z,2.30
2019-05-17T17:00:30.633Z,2.93
2019-05-17T17:02:34.291Z,3.70
2019-05-17T17:04:38.060Z,3.47
2019-05-17T17:06:41.763Z,6.00
2019-05-17T17:08:45.439Z,3.03
2019-05-17T17:10:49.155Z,4.33
2019-05-17T17:12:52.847Z,2.30
2019-05-17T17:14:56.671Z,2.30
2019-05-17T17:17:00.343Z,2.50
2019-05-17T17:19:04.116Z,6.83
2019-05-17T17:21:08.046Z,2.63
2019-05-17T17:23:11.754Z,2.80
2019-05-17T17:25:15.474Z,4.97
2019-05-17T17:27:19.217Z,5.20
2019-05-17T17:29:22.884Z,3.23
2019-05-17T17:31:26.802Z,5.53
2019-05-17T17:33:30.451Z,4.27
2019-05-17T17:35:34.120Z,4.07
2019-05-17T17:37:37.808Z,2.90
2019-05-17T17:39:41.487Z,4.70
2019-05-17T17:41:45.260Z,4.40
2019-05-17T17:43:58.227Z,5.40
2019-05-17T17:45:54.459Z,4.07
2019-05-17T17:47:58.147Z,2.40
2019-05-17T17:50:01.891Z,5.00
2019-05-17T17:52:05.634Z,3.73
2019-05-17T17:54:09.318Z,5.50
2019-05-17T17:56:13.723Z,2.97
2019-05-17T17:58:17.564Z,2.43
2019-05-17T18:00:21.554Z,2.27
2019-05-17T18:02:25.768Z,5.40
2019-05-17T18:04:29.441Z,3.03
2019-05-17T18:06:33.090Z,4.27
2019-05-17T18:08:36.770Z,5.30
2019-05-17T18:10:40.672Z,2.60
2019-05-17T18:12:44.406Z,6.00
2019-05-17T18:14:48.071Z,2.60
2019-05-17T18:16:51.818Z,5.20
2019-05-17T18:18:55.526Z,6.53
2019-05-17T18:20:59.188Z,7.27
2019-05-17T18:23:03.028Z,4.73
2019-05-17T18:25:06.870Z,2.40
2019-05-17T18:27:10.556Z,3.73
2019-05-17T18:29:14.448Z,4.30
2019-05-17T18:31:18.116Z,5.10
2019-05-17T18:33:21.811Z,2.20
2019-05-17T18:35:25.480Z,5.10
2019-05-17T18:37:29.144Z,4.87
2019-05-17T18:39:32.821Z,2.87
2019-05-17T18:41:36.494Z,8.00
2019-05-17T18:43:40.246Z,4.70
2019-05-17T18:45:43.906Z,4.53
2019-05-17T18:47:50.355Z,3.77
2019-05-17T18:49:53.147Z,4.83
2019-05-17T18:51:56.802Z,3.47
2019-05-17T18:54:00.961Z,2.93
2019-05-17T18:56:04.627Z,5.37
2019-05-17T18:58:08.262Z,5.40
2019-05-17T19:00:12.295Z,3.60
2019-05-17T19:02:15.966Z,3.13
2019-05-17T19:04:19.695Z,8.87
2019-05-17T19:06:23.363Z,2.43
2019-05-17T19:08:27.093Z,4.67
2019-05-17T19:10:30.873Z,3.30
2019-05-17T19:12:34.550Z,2.50
2019-05-17T19:14:43.102Z,3.87
2019-05-17T19:16:43.623Z,2.63
2019-05-17T19:18:47.352Z,3.73
2019-05-17T19:20:51.041Z,3.13
2019-05-17T19:22:54.907Z,3.27
2019-05-17T19:24:58.583Z,3.63
2019-05-17T19:27:02.253Z,2.97
2019-05-17T19:29:05.916Z,5.50
2019-05-17T19:31:09.609Z,2.60
2019-05-17T19:33:13.291Z,2.83
2019-05-17T19:35:16.978Z,4.73
2019-05-17T19:37:20.796Z,2.97
2019-05-17T19:39:24.487Z,2.50
2019-05-17T19:41:28.183Z,2.93
2019-05-17T19:43:31.894Z,3.93
2019-05-17T19:45:35.584Z,2.80
2019-05-17T19:47:39.254Z,2.50
2019-05-17T19:49:42.979Z,3.40
2019-05-17T19:51:46.662Z,6.07
2019-05-17T19:53:50.383Z,3.73
2019-05-17T19:55:54.207Z,5.20
2019-05-17T19:57:57.907Z,6.03
2019-05-17T20:00:01.634Z,7.60
2019-05-17T20:02:06.633Z,8.97
2019-05-17T20:04:10.456Z,12.00
2019-05-17T20:06:14.149Z,4.30
2019-05-17T20:08:17.822Z,5.93
2019-05-17T20:10:21.915Z,6.40
2019-05-17T20:12:25.586Z,5.80
2019-05-17T20:14:29.257Z,3.00
2019-05-17T20:16:32.953Z,5.30
2019-05-17T20:18:36.629Z,4.03
2019-05-17T20:20:40.470Z,7.43
2019-05-17T20:22:44.154Z,4.30
2019-05-17T20:24:47.825Z,4.03
2019-05-17T20:26:51.502Z,5.20
2019-05-17T20:28:55.170Z,4.20
2019-05-17T20:30:58.884Z,7.10
2019-05-17T20:33:02.548Z,3.73
2019-05-17T20:35:06.999Z,3.90
2019-05-17T20:37:10.804Z,5.90
2019-05-17T20:39:14.461Z,4.50
2019-05-17T20:41:18.578Z,3.37
2019-05-17T20:43:22.298Z,6.93
2019-05-17T20:45:33.257Z,4.00
2019-05-17T20:47:31.366Z,3.73
2019-05-17T20:49:35.027Z,4.67
2019-05-17T20:51:38.730Z,4.10
2019-05-17T20:53:42.511Z,3.67
2019-05-17T20:55:46.169Z,3.80
2019-05-17T20:57:49.875Z,5.30
2019-05-17T20:59:53.618Z,4.53
2019-05-17T21:01:57.428Z,3.30
2019-05-17T21:04:01.074Z,3.63
2019-05-17T21:06:04.862Z,3.43
2019-05-17T21:08:08.547Z,7.10
2019-05-17T21:10:12.567Z,5.43
2019-05-17T21:12:16.272Z,4.40
2019-05-17T21:14:19.939Z,3.30
2019-05-17T21:16:23.594Z,6.33
2019-05-17T21:18:27.334Z,3.37
2019-05-17T21:20:30.992Z,3.60
2019-05-17T21:22:34.693Z,4.53
2019-05-17T21:24:38.442Z,3.83
2019-05-17T21:26:42.147Z,3.93
2019-05-17T21:28:47.316Z,4.43
2019-05-17T21:30:51.079Z,4.67
2019-05-17T21:32:54.752Z,5.13
2019-05-17T21:34:58.454Z,3.90
2019-05-17T21:37:02.118Z,3.80
2019-05-17T21:39:06.603Z,4.50
2019-05-17T21:41:10.246Z,4.10
2019-05-17T21:43:13.959Z,5.10
2019-05-17T21:45:17.612Z,5.97
2019-05-17T21:47:21.270Z,4.03
2019-05-17T21:49:25.137Z,3.73
2019-05-17T21:51:28.874Z,3.50
2019-05-17T21:53:32.607Z,3.23
2019-05-17T21:55:36.265Z,4.63
2019-05-17T21:57:39.924Z,4.43
2019-05-17T21:59:43.630Z,5.77
2019-05-17T22:01:47.298Z,6.13
2019-05-17T22:03:50.968Z,4.33
2019-05-17T22:05:54.635Z,6.77
2019-05-17T22:07:58.455Z,9.30
2019-05-17T22:10:02.153Z,5.90
2019-05-17T22:12:10.218Z,4.53
2019-05-17T22:14:13.998Z,3.63
2019-05-17T22:16:19.996Z,7.50
2019-05-17T22:18:23.115Z,3.90
2019-05-17T22:20:26.826Z,4.80
2019-05-17T22:22:30.489Z,5.00
2019-05-17T22:24:34.177Z,3.77
2019-05-17T22:26:37.866Z,3.87
2019-05-17T22:28:41.606Z,4.73
2019-05-17T22:30:45.298Z,6.40
2019-05-17T22:32:49.011Z,5.07
2019-05-17T22:34:52.711Z,6.70
2019-05-17T22:36:56.359Z,4.40
2019-05-17T22:39:00.060Z,5.40
2019-05-17T22:41:03.747Z,4.60
2019-05-17T22:43:07.410Z,4.00
2019-05-17T22:45:11.104Z,5.10
2019-05-17T22:47:14.767Z,5.27
2019-05-17T22:49:18.436Z,4.90
2019-05-17T22:51:22.295Z,4.27
2019-05-17T22:53:25.951Z,4.43
2019-05-17T22:55:29.652Z,4.93
2019-05-17T22:57:33.312Z,4.30
2019-05-17T22:59:37.003Z,5.30
2019-05-17T23:01:40.848Z,4.50
2019-05-17T23:03:44.515Z,5.83
2019-05-17T23:05:48.218Z,4.47
2019-05-17T23:07:51.880Z,4.90
2019-05-17T23:09:55.539Z,4.93
2019-05-17T23:11:59.243Z,4.63
2019-05-17T23:14:02.895Z,4.63
2019-05-17T23:16:08.131Z,5.73
2019-05-17T23:18:11.897Z,5.60
2019-05-17T23:20:15.563Z,6.23
2019-05-17T23:22:19.358Z,4.63
2019-05-17T23:24:23.077Z,8.57
2019-05-17T23:26:26.790Z,4.67
2019-05-17T23:28:30.570Z,5.80
2019-05-17T23:30:34.247Z,4.63
2019-05-17T23:32:37.935Z,4.03
2019-05-17T23:34:41.622Z,4.30
2019-05-17T23:36:45.412Z,4.40
2019-05-17T23:38:49.127Z,4.97
2019-05-17T23:40:52.831Z,4.40
2019-05-17T23:42:56.580Z,5.70
2019-05-17T23:45:00.239Z,6.70
2019-05-17T23:47:07.068Z,4.63
2019-05-17T23:49:09.449Z,5.23
2019-05-17T23:51:13.160Z,5.33
2019-05-17T23:53:16.827Z,4.70
2019-05-17T23:55:20.622Z,4.10
2019-05-17T23:57:24.318Z,4.50
2019-05-17T23:59:28.068Z,4.37
